Time;durP1;ratioP1;P1;durP2;ratioP2;P2;SDS_P1;SDS_P2;PMS_P1;PMS_P2;Temp;Humidity;BMP_temperature;BMP_pressure;BME280_temperature;BME280_humidity;BME280_pressure;Samples;Min_cycle;Max_cycle;Signal;HPM_P1;HPM_P2
2022/06/02 00:01:33;;;;;;;;;2.00;2.00;;;;;;;;5077647;27;45406;-70
2022/06/02 00:04:10;;;;;;;;;2.00;2.00;;;;;;;;5078747;27;45312;-70
2022/06/02 00:06:35;;;;;;;;;3.67;3.00;;;;;;;;5059678;28;45430;-70
2022/06/02 00:09:03;;;;;;;;;3.00;3.00;;;;;;;;5083768;27;46334;-70
2022/06/02 00:11:47;;;;;;;;;2.67;2.00;;;;;;;;5085894;27;45174;-69
2022/06/02 00:14:15;;;;;;;;;2.33;2.33;;;;;;;;5079207;27;45229;-69
2022/06/02 00:16:52;;;;;;;;;3.00;3.00;;;;;;;;5080468;27;45452;-69
2022/06/02 00:19:29;;;;;;;;;4.00;3.00;;;;;;;;5065006;28;48342;-69
2022/06/02 00:21:57;;;;;;;;;2.67;2.67;;;;;;;;5076164;27;45403;-70
2022/06/02 00:24:35;;;;;;;;;2.00;2.00;;;;;;;;5077479;28;45304;-69
2022/06/02 00:27:19;;;;;;;;;3.00;2.67;;;;;;;;5084888;27;45742;-70
2022/06/02 00:29:44;;;;;;;;;3.33;2.67;;;;;;;;5074666;28;45254;-70
2022/06/02 00:32:09;;;;;;;;;2.33;2.33;;;;;;;;5078378;27;45427;-69
2022/06/02 00:34:34;;;;;;;;;1.00;1.00;;;;;;;;5075769;28;45216;-69
2022/06/02 00:37:00;;;;;;;;;4.33;3.67;;;;;;;;5076476;27;45291;-69
2022/06/02 00:39:27;;;;;;;;;2.00;2.00;;;;;;;;5058534;28;47891;-70
2022/06/02 00:41:52;;;;;;;;;3.33;3.33;;;;;;;;5085301;27;45521;-70
2022/06/02 00:44:31;;;;;;;;;3.67;3.67;;;;;;;;5070819;28;45599;-70
2022/06/02 00:47:02;;;;;;;;;5.67;4.00;;;;;;;;5076518;28;45328;-69
2022/06/02 00:49:46;;;;;;;;;5.00;4.00;;;;;;;;5058296;28;47271;-69
2022/06/02 00:52:11;;;;;;;;;3.33;3.33;;;;;;;;5077640;28;45382;-72
2022/06/02 00:57:35;;;;;;;;;3.67;3.67;;;;;;;;5079315;27;45217;-69
2022/06/02 01:00:11;;;;;;;;;4.33;4.00;;;;;;;;5060539;28;47349;-69
2022/06/02 01:02:44;;;;;;;;;4.00;4.00;;;;;;;;5078709;27;45265;-70
2022/06/02 01:05:10;;;;;;;;;5.00;3.33;;;;;;;;5057245;28;45438;-69
2022/06/02 01:07:35;;;;;;;;;3.00;3.00;;;;;;;;5078386;28;45525;-70
2022/06/02 01:10:24;;;;;;;;;3.00;3.00;;;;;;;;5076632;27;45767;-70
2022/06/02 01:12:49;;;;;;;;;4.00;4.00;;;;;;;;5077399;27;45293;-69
2022/06/02 01:15:34;;;;;;;;;4.00;4.00;;;;;;;;5086039;27;45469;-69
2022/06/02 01:18:13;;;;;;;;;4.00;3.00;;;;;;;;5080687;27;45399;-69
2022/06/02 01:20:43;;;;;;;;;4.00;4.00;;;;;;;;5071921;28;45674;-69
2022/06/02 01:23:27;;;;;;;;;5.00;4.00;;;;;;;;5079902;27;45351;-69
2022/06/02 01:26:08;;;;;;;;;4.00;4.00;;;;;;;;5072905;27;45300;-70
2022/06/02 01:28:52;;;;;;;;;7.00;4.33;;;;;;;;5069142;28;45445;-69
2022/06/02 01:31:26;;;;;;;;;4.33;4.33;;;;;;;;5071798;27;45347;-69
2022/06/02 01:33:51;;;;;;;;;4.67;4.67;;;;;;;;5078369;28;45367;-69
2022/06/02 01:36:20;;;;;;;;;7.00;5.00;;;;;;;;5072381;28;45322;-70
2022/06/02 01:38:56;;;;;;;;;4.00;4.00;;;;;;;;5078635;27;45323;-69
2022/06/02 01:41:30;;;;;;;;;5.00;4.67;;;;;;;;5075482;28;45507;-70
2022/06/02 01:43:58;;;;;;;;;6.33;5.00;;;;;;;;5059300;28;45455;-69
2022/06/02 01:46:33;;;;;;;;;5.00;4.00;;;;;;;;5076150;28;45715;-69
2022/06/02 01:49:09;;;;;;;;;6.00;5.00;;;;;;;;5080056;27;45461;-70
2022/06/02 01:51:41;;;;;;;;;2.67;2.00;;;;;;;;5056963;27;47401;-69
2022/06/02 01:54:13;;;;;;;;;3.00;3.00;;;;;;;;5076348;28;45422;-69
2022/06/02 01:56:57;;;;;;;;;5.00;4.00;;;;;;;;5077616;27;45359;-69
2022/06/02 01:59:41;;;;;;;;;4.00;4.00;;;;;;;;5054545;28;46153;-69
2022/06/02 02:02:06;;;;;;;;;5.33;5.33;;;;;;;;5054458;28;48616;-69
2022/06/02 02:04:31;;;;;;;;;5.00;5.00;;;;;;;;5078720;27;45416;-70
2022/06/02 02:06:56;;;;;;;;;5.00;5.00;;;;;;;;5087247;27;45468;-69
2022/06/02 02:09:22;;;;;;;;;4.50;4.50;;;;;;;;5081355;27;45477;-69
2022/06/02 02:11:48;;;;;;;;;4.50;4.50;;;;;;;;5092781;27;46386;-69
2022/06/02 02:14:17;;;;;;;;;6.00;5.00;;;;;;;;5090205;27;45312;-69
2022/06/02 02:16:45;;;;;;;;;5.75;5.00;;;;;;;;5083189;27;45413;-70
2022/06/02 02:19:22;;;;;;;;;5.75;5.75;;;;;;;;5092432;27;45500;-70
2022/06/02 02:22:01;;;;;;;;;5.67;5.00;;;;;;;;5059253;28;48695;-69
2022/06/02 02:24:53;;;;;;;;;5.00;4.33;;;;;;;;5079565;27;45350;-69
2022/06/02 02:27:22;;;;;;;;;5.00;5.00;;;;;;;;5092772;27;45601;-69
2022/06/02 02:30:06;;;;;;;;;5.00;4.00;;;;;;;;5087873;27;45535;-69
2022/06/02 02:32:40;;;;;;;;;5.50;5.50;;;;;;;;5088904;27;47191;-71
2022/06/02 02:35:35;;;;;;;;;6.00;6.00;;;;;;;;5084295;27;45304;-70
2022/06/02 02:38:04;;;;;;;;;5.33;5.33;;;;;;;;5052585;27;45477;-70
2022/06/02 02:40:31;;;;;;;;;5.75;5.00;;;;;;;;5080369;27;45277;-71
2022/06/02 02:43:13;;;;;;;;;5.00;4.00;;;;;;;;5085125;27;46372;-71
2022/06/02 02:45:56;;;;;;;;;5.00;5.00;;;;;;;;5080573;27;44768;-72
2022/06/02 02:48:40;;;;;;;;;5.00;5.00;;;;;;;;5094552;27;45320;-71
2022/06/02 02:51:15;;;;;;;;;5.75;5.75;;;;;;;;5076084;27;45680;-71
2022/06/02 02:53:47;;;;;;;;;4.75;4.75;;;;;;;;5066871;27;48441;-71
2022/06/02 02:56:31;;;;;;;;;5.75;5.75;;;;;;;;5057644;28;45352;-71
2022/06/02 02:58:59;;;;;;;;;5.75;5.75;;;;;;;;5079919;27;45427;-70
2022/06/02 03:01:25;;;;;;;;;6.75;6.50;;;;;;;;5077975;27;45614;-70
2022/06/02 03:03:59;;;;;;;;;7.00;5.00;;;;;;;;5072119;27;46187;-70
2022/06/02 03:06:30;;;;;;;;;5.50;5.50;;;;;;;;5058766;28;45394;-70
2022/06/02 03:09:08;;;;;;;;;4.00;4.00;;;;;;;;5058766;27;45344;-71
2022/06/02 03:11:48;;;;;;;;;6.75;6.75;;;;;;;;5070962;27;45527;-71
2022/06/02 03:14:21;;;;;;;;;10.25;5.50;;;;;;;;5059425;28;47419;-70
2022/06/02 03:16:51;;;;;;;;;4.00;4.00;;;;;;;;5051493;28;45384;-71
2022/06/02 03:19:37;;;;;;;;;6.00;6.00;;;;;;;;5073609;27;45308;-70
2022/06/02 03:22:12;;;;;;;;;5.25;5.25;;;;;;;;5082172;27;45524;-70
2022/06/02 03:24:37;;;;;;;;;7.50;7.50;;;;;;;;5071054;28;47343;-70
2022/06/02 03:27:02;;;;;;;;;6.25;5.75;;;;;;;;5076200;27;45495;-70
2022/06/02 03:29:43;;;;;;;;;7.00;5.50;;;;;;;;5072725;27;45272;-70
2022/06/02 03:32:16;;;;;;;;;5.00;5.00;;;;;;;;5085615;27;45500;-70
2022/06/02 03:34:50;;;;;;;;;7.00;6.25;;;;;;;;5062303;28;47541;-70
2022/06/02 03:37:34;;;;;;;;;5.00;5.00;;;;;;;;5093264;27;45332;-70
2022/06/02 03:40:01;;;;;;;;;8.25;7.00;;;;;;;;5086834;27;45295;-70
2022/06/02 03:42:42;;;;;;;;;7.00;6.00;;;;;;;;5092835;27;45355;-70
2022/06/02 03:45:07;;;;;;;;;7.75;7.00;;;;;;;;5050429;28;47092;-70
2022/06/02 03:47:36;;;;;;;;;4.25;4.25;;;;;;;;5053567;28;45566;-70
2022/06/02 03:50:01;;;;;;;;;6.50;6.00;;;;;;;;5078673;27;45661;-70
2022/06/02 03:52:45;;;;;;;;;8.25;6.50;;;;;;;;5075059;27;46044;-70
2022/06/02 03:55:19;;;;;;;;;6.00;6.00;;;;;;;;5073882;27;45880;-70
2022/06/02 03:58:03;;;;;;;;;7.00;6.00;;;;;;;;5061492;28;46133;-70
2022/06/02 04:00:33;;;;;;;;;5.75;5.75;;;;;;;;5052374;28;45655;-70
2022/06/02 04:03:02;;;;;;;;;10.00;7.75;;;;;;;;5075783;27;45873;-70
2022/06/02 04:05:27;;;;;;;;;6.75;6.75;;;;;;;;5052890;28;48273;-70
2022/06/02 04:07:59;;;;;;;;;7.25;7.25;;;;;;;;5052093;27;45544;-70
2022/06/02 04:10:39;;;;;;;;;5.25;5.25;;;;;;;;5079616;27;45460;-70
2022/06/02 04:16:03;;;;;;;;;9.00;6.50;;;;;;;;5075019;27;45564;-70
2022/06/02 04:18:41;;;;;;;;;9.50;6.75;;;;;;;;5058371;28;45338;-70
2022/06/02 04:21:21;;;;;;;;;7.00;4.00;;;;;;;;5073881;27;45407;-70
2022/06/02 04:23:46;;;;;;;;;6.75;6.50;;;;;;;;5076626;28;45742;-69
2022/06/02 04:26:11;;;;;;;;;7.00;6.25;;;;;;;;5055161;28;48067;-70
2022/06/02 04:29:06;;;;;;;;;7.75;7.50;;;;;;;;5055145;28;45458;-71
2022/06/02 04:31:49;;;;;;;;;8.75;7.00;;;;;;;;5015908;28;45861;-70
2022/06/02 04:34:33;;;;;;;;;8.75;7.00;;;;;;;;5077578;27;45491;-70
2022/06/02 04:37:01;;;;;;;;;6.50;6.50;;;;;;;;5073874;27;45921;-70
2022/06/02 04:39:50;;;;;;;;;7.00;7.00;;;;;;;;5074145;27;45589;-70
2022/06/02 04:42:18;;;;;;;;;8.00;6.25;;;;;;;;5073456;28;45530;-71
2022/06/02 04:44:43;;;;;;;;;7.25;7.25;;;;;;;;5074787;27;46064;-70
2022/06/02 04:47:08;;;;;;;;;8.00;8.00;;;;;;;;5058291;27;48704;-69
2022/06/02 04:49:43;;;;;;;;;7.75;7.00;;;;;;;;5091056;27;45477;-69
2022/06/02 04:52:37;;;;;;;;;5.75;5.75;;;;;;;;5086634;27;46779;-71
2022/06/02 04:55:05;;;;;;;;;7.00;7.00;;;;;;;;5061925;28;45518;-71
2022/06/02 04:57:56;;;;;;;;;7.25;7.25;;;;;;;;5060393;28;48269;-70
2022/06/02 05:00:46;;;;;;;;;8.00;8.00;;;;;;;;5076743;27;45344;-71
2022/06/02 05:03:29;;;;;;;;;8.00;7.00;;;;;;;;5093877;27;45473;-71
2022/06/02 05:06:09;;;;;;;;;6.75;6.00;;;;;;;;5082056;27;45391;-71
2022/06/02 05:08:41;;;;;;;;;7.75;7.75;;;;;;;;5074214;27;45520;-71
2022/06/02 05:11:06;;;;;;;;;8.75;6.50;;;;;;;;5085151;27;45485;-72
2022/06/02 05:13:32;;;;;;;;;9.00;7.25;;;;;;;;5089621;27;45729;-71
2022/06/02 05:16:11;;;;;;;;;7.25;7.00;;;;;;;;5088177;27;45473;-71
2022/06/02 05:18:53;;;;;;;;;7.50;6.25;;;;;;;;5057084;27;47307;-72
2022/06/02 05:21:18;;;;;;;;;9.00;8.00;;;;;;;;5081350;27;45366;-72
2022/06/02 05:23:43;;;;;;;;;7.75;6.00;;;;;;;;5084884;27;45644;-72
2022/06/02 05:26:08;;;;;;;;;7.50;7.00;;;;;;;;5087374;27;45705;-72
2022/06/02 05:28:52;;;;;;;;;6.75;5.75;;;;;;;;5095797;27;45397;-72
2022/06/02 05:31:17;;;;;;;;;10.50;9.50;;;;;;;;5087411;27;45399;-74
2022/06/02 05:33:42;;;;;;;;;9.25;8.50;;;;;;;;5096240;27;45429;-71
2022/06/02 05:36:23;;;;;;;;;10.25;9.25;;;;;;;;5090734;27;45319;-72
2022/06/02 05:38:56;;;;;;;;;10.75;8.00;;;;;;;;5099963;27;46756;-72
2022/06/02 05:41:40;;;;;;;;;9.75;8.00;;;;;;;;5093721;27;45449;-72
2022/06/02 05:44:05;;;;;;;;;6.00;6.00;;;;;;;;5095141;27;45432;-72
2022/06/02 05:46:37;;;;;;;;;9.00;8.00;;;;;;;;5061318;27;47070;-72
2022/06/02 05:49:14;;;;;;;;;12.50;10.00;;;;;;;;5099019;27;46326;-72
2022/06/02 05:51:48;;;;;;;;;10.75;9.00;;;;;;;;5094676;27;45433;-72
2022/06/02 05:54:14;;;;;;;;;8.00;7.25;;;;;;;;5092645;27;45345;-72
2022/06/02 05:56:49;;;;;;;;;9.25;9.25;;;;;;;;5096724;27;45300;-72
2022/06/02 05:59:14;;;;;;;;;8.00;8.00;;;;;;;;5093008;27;45530;-72
2022/06/02 06:01:43;;;;;;;;;10.00;8.75;;;;;;;;5096412;27;45492;-73
2022/06/02 06:04:17;;;;;;;;;9.00;9.00;;;;;;;;5096902;27;45343;-73
2022/06/02 06:06:50;;;;;;;;;9.00;9.00;;;;;;;;5092840;27;44837;-74
2022/06/02 06:09:39;;;;;;;;;10.50;8.75;;;;;;;;5076353;27;48138;-72
2022/06/02 06:12:20;;;;;;;;;10.50;8.50;;;;;;;;5084714;27;45334;-74
2022/06/02 06:14:45;;;;;;;;;9.50;9.50;;;;;;;;5088343;27;45513;-73
2022/06/02 06:17:32;;;;;;;;;10.50;8.25;;;;;;;;5087026;27;45244;-72
2022/06/02 06:20:02;;;;;;;;;10.00;8.67;;;;;;;;5089982;27;46037;-69
2022/06/02 06:22:30;;;;;;;;;11.00;9.67;;;;;;;;5079049;27;45378;-69
2022/06/02 06:25:02;;;;;;;;;10.67;10.00;;;;;;;;5078609;27;45517;-69
2022/06/02 06:27:36;;;;;;;;;10.33;8.67;;;;;;;;5060596;28;45430;-69
2022/06/02 06:30:04;;;;;;;;;8.33;8.33;;;;;;;;5074674;27;45577;-69
2022/06/02 06:32:33;;;;;;;;;11.00;8.00;;;;;;;;5081765;27;45153;-68
2022/06/02 06:34:58;;;;;;;;;9.33;6.67;;;;;;;;5056699;28;45137;-69
2022/06/02 06:37:29;;;;;;;;;9.00;7.00;;;;;;;;5080773;27;45364;-68
2022/06/02 06:40:13;;;;;;;;;10.33;9.33;;;;;;;;5075479;27;45300;-69
2022/06/02 06:42:45;;;;;;;;;11.00;11.00;;;;;;;;5080090;27;45562;-69
2022/06/02 06:45:17;;;;;;;;;12.33;10.67;;;;;;;;5076393;27;45441;-69
2022/06/02 06:47:44;;;;;;;;;13.00;10.33;;;;;;;;5081624;27;45371;-69
2022/06/02 06:50:17;;;;;;;;;12.00;10.33;;;;;;;;5083857;27;45587;-68
2022/06/02 06:53:01;;;;;;;;;16.00;12.00;;;;;;;;5072434;27;45938;-69
2022/06/02 06:55:45;;;;;;;;;9.67;9.00;;;;;;;;5083332;27;45360;-69
2022/06/02 06:58:20;;;;;;;;;12.33;12.33;;;;;;;;5083551;27;45592;-69
2022/06/02 07:00:48;;;;;;;;;5.00;5.00;;;;;;;;5078181;27;46885;-69
2022/06/02 07:03:23;;;;;;;;;11.33;11.33;;;;;;;;5078560;27;45469;-69
2022/06/02 07:05:50;;;;;;;;;12.67;11.00;;;;;;;;5078016;27;45365;-69
2022/06/02 07:08:31;;;;;;;;;10.00;8.67;;;;;;;;5062851;27;45973;-69
2022/06/02 07:14:09;;;;;;;;;9.33;9.33;;;;;;;;5070871;27;45261;-69
2022/06/02 07:16:38;;;;;;;;;12.00;10.00;;;;;;;;5079433;27;45606;-70
2022/06/02 07:19:09;;;;;;;;;12.67;12.00;;;;;;;;5079645;27;45566;-69
2022/06/02 07:21:49;;;;;;;;;13.00;10.00;;;;;;;;5080538;27;46157;-74
2022/06/02 07:24:17;;;;;;;;;9.00;9.00;;;;;;;;5080954;27;45330;-74
2022/06/02 07:26:57;;;;;;;;;11.67;10.33;;;;;;;;5083556;27;45224;-75
2022/06/02 07:29:26;;;;;;;;;12.33;9.00;;;;;;;;5072185;27;46106;-72
2022/06/02 07:32:03;;;;;;;;;11.00;10.00;;;;;;;;5080071;27;46136;-72
2022/06/02 07:34:28;;;;;;;;;8.33;8.33;;;;;;;;5078800;27;45193;-72
2022/06/02 07:37:13;;;;;;;;;9.00;8.33;;;;;;;;5085983;27;45583;-73
2022/06/02 07:39:57;;;;;;;;;12.00;8.00;;;;;;;;5029870;28;46083;-73
2022/06/02 07:42:23;;;;;;;;;10.00;10.00;;;;;;;;5084893;27;45367;-72
2022/06/02 07:45:06;;;;;;;;;9.67;8.00;;;;;;;;5060961;27;45912;-73
2022/06/02 07:47:31;;;;;;;;;9.00;9.00;;;;;;;;5086170;27;45350;-72
2022/06/02 07:50:06;;;;;;;;;7.33;7.33;;;;;;;;5085160;27;45382;-73
2022/06/02 07:52:31;;;;;;;;;10.00;9.00;;;;;;;;5072189;28;45574;-73
2022/06/02 07:55:01;;;;;;;;;9.00;9.00;;;;;;;;5076513;27;45541;-72
2022/06/02 07:57:36;;;;;;;;;9.00;7.67;;;;;;;;5080189;27;45210;-73
2022/06/02 08:00:04;;;;;;;;;8.00;6.33;;;;;;;;5074741;27;45223;-72
2022/06/02 08:02:32;;;;;;;;;11.67;10.67;;;;;;;;5078094;27;46410;-73
2022/06/02 08:05:13;;;;;;;;;8.00;7.00;;;;;;;;5059156;28;45687;-72
2022/06/02 08:07:44;;;;;;;;;6.00;6.00;;;;;;;;5079801;27;45478;-73
2022/06/02 08:10:19;;;;;;;;;8.67;7.00;;;;;;;;5067899;27;47344;-74
2022/06/02 08:12:44;;;;;;;;;6.33;5.33;;;;;;;;5085199;27;46389;-74
2022/06/02 08:15:27;;;;;;;;;8.00;7.00;;;;;;;;5076978;27;45285;-74
2022/06/02 08:17:58;;;;;;;;;5.00;5.00;;;;;;;;5087197;27;45276;-74
2022/06/02 08:20:27;;;;;;;;;8.33;7.00;;;;;;;;5058703;28;46773;-74
2022/06/02 08:23:11;;;;;;;;;3.00;3.00;;;;;;;;5079461;27;45398;-74
2022/06/02 08:25:42;;;;;;;;;6.00;6.00;;;;;;;;5071246;27;45353;-75
2022/06/02 08:28:10;;;;;;;;;7.00;5.00;;;;;;;;5061458;28;45494;-73
2022/06/02 08:30:38;;;;;;;;;5.50;4.75;;;;;;;;5073540;28;45696;-74
2022/06/02 08:33:22;;;;;;;;;6.33;6.00;;;;;;;;5079664;27;45787;-75
2022/06/02 08:36:00;;;;;;;;;6.33;6.00;;;;;;;;5070283;28;45411;-74
2022/06/02 08:38:38;;;;;;;;;6.00;6.00;;;;;;;;5079693;28;45230;-74
2022/06/02 08:41:29;;;;;;;;;5.50;4.75;;;;;;;;5072610;28;45529;-74
2022/06/02 08:44:13;;;;;;;;;6.50;5.50;;;;;;;;5069037;28;45547;-76
2022/06/02 08:46:57;;;;;;;;;5.50;4.50;;;;;;;;5064481;27;45405;-75
2022/06/02 08:49:41;;;;;;;;;4.25;4.25;;;;;;;;5084275;27;45461;-74
2022/06/02 08:52:12;;;;;;;;;5.00;5.00;;;;;;;;5062353;27;46257;-74
2022/06/02 08:54:56;;;;;;;;;6.33;5.33;;;;;;;;5060590;28;47103;-74
2022/06/02 08:57:33;;;;;;;;;5.67;4.33;;;;;;;;5095741;27;45427;-73
2022/06/02 09:00:04;;;;;;;;;4.67;4.67;;;;;;;;5083749;27;45374;-73
2022/06/02 09:02:35;;;;;;;;;5.00;5.00;;;;;;;;5078892;27;45558;-73
2022/06/02 09:05:19;;;;;;;;;5.25;5.25;;;;;;;;5078680;27;46374;-75
2022/06/02 09:08:02;;;;;;;;;4.00;4.00;;;;;;;;5078302;27;45523;-75
2022/06/02 09:10:38;;;;;;;;;3.25;3.00;;;;;;;;5073549;27;45606;-75
2022/06/02 09:13:22;;;;;;;;;6.50;4.25;;;;;;;;5060856;28;47579;-75
2022/06/02 09:16:05;;;;;;;;;4.75;3.50;;;;;;;;5074711;27;45478;-75
2022/06/02 09:18:49;;;;;;;;;3.75;3.75;;;;;;;;5078983;28;45254;-75
2022/06/02 09:21:22;;;;;;;;;3.50;3.50;;;;;;;;5072299;27;45293;-75
2022/06/02 09:24:14;;;;;;;;;4.25;3.25;;;;;;;;5060819;28;45978;-75
2022/06/02 09:26:58;;;;;;;;;4.00;4.00;;;;;;;;5054988;28;47723;-74
2022/06/02 09:29:24;;;;;;;;;2.75;2.75;;;;;;;;5089219;27;45354;-74
2022/06/02 09:31:50;;;;;;;;;3.50;3.25;;;;;;;;5091860;27;45391;-74
2022/06/02 09:34:38;;;;;;;;;4.75;2.75;;;;;;;;5091860;27;45560;-74
2022/06/02 09:37:10;;;;;;;;;3.25;3.25;;;;;;;;5051710;28;45321;-74
2022/06/02 09:39:35;;;;;;;;;4.00;4.00;;;;;;;;5080347;27;47067;-74
2022/06/02 09:42:15;;;;;;;;;2.75;2.75;;;;;;;;5095736;27;45336;-75
2022/06/02 09:44:41;;;;;;;;;3.50;3.50;;;;;;;;5048364;28;46274;-75
2022/06/02 09:47:08;;;;;;;;;4.00;4.00;;;;;;;;5075717;27;45366;-75
2022/06/02 09:49:49;;;;;;;;;4.00;3.20;;;;;;;;5082858;27;45423;-74
2022/06/02 09:52:26;;;;;;;;;3.20;3.20;;;;;;;;5058745;28;45466;-75
2022/06/02 09:55:03;;;;;;;;;4.50;4.25;;;;;;;;5076020;27;45553;-74
2022/06/02 10:00:22;;;;;;;;;2.40;2.40;;;;;;;;5074515;28;45321;-74
2022/06/02 10:02:47;;;;;;;;;3.00;2.25;;;;;;;;5077997;28;45217;-74
2022/06/02 10:05:13;;;;;;;;;2.75;2.75;;;;;;;;5075567;27;46631;-76
2022/06/02 10:07:44;;;;;;;;;4.50;4.00;;;;;;;;5096417;27;45223;-73
2022/06/02 10:10:39;;;;;;;;;0.80;0.60;;;;;;;;5076382;27;45403;-74
2022/06/02 10:13:22;;;;;;;;;3.00;2.80;;;;;;;;5078142;27;45278;-74
2022/06/02 10:16:10;;;;;;;;;4.75;3.00;;;;;;;;5070700;28;45417;-73
2022/06/02 10:18:47;;;;;;;;;3.20;2.20;;;;;;;;5038945;27;46773;-73
2022/06/02 10:21:31;;;;;;;;;3.20;3.20;;;;;;;;5083393;27;45408;-74
2022/06/02 10:24:02;;;;;;;;;2.80;2.80;;;;;;;;5087386;27;46068;-74
2022/06/02 10:26:34;;;;;;;;;3.00;3.00;;;;;;;;5079112;27;45353;-74
2022/06/02 10:29:18;;;;;;;;;2.20;2.20;;;;;;;;5082730;27;46255;-73
2022/06/02 10:31:43;;;;;;;;;3.00;3.00;;;;;;;;5077531;27;45460;-73
2022/06/02 10:34:18;;;;;;;;;2.00;2.00;;;;;;;;5084748;27;45752;-73
2022/06/02 10:36:49;;;;;;;;;1.80;1.80;;;;;;;;5060343;27;46518;-74
2022/06/02 10:39:23;;;;;;;;;2.60;2.60;;;;;;;;5093017;27;45227;-73
2022/06/02 10:41:48;;;;;;;;;4.00;2.80;;;;;;;;5080872;27;45480;-74
2022/06/02 10:44:19;;;;;;;;;2.00;2.00;;;;;;;;5080656;27;45388;-74
2022/06/02 10:46:58;;;;;;;;;1.80;1.80;;;;;;;;5079424;27;45381;-74
2022/06/02 10:49:42;;;;;;;;;2.80;2.00;;;;;;;;5067233;27;45997;-73
2022/06/02 10:52:26;;;;;;;;;4.60;2.40;;;;;;;;5078383;27;45257;-74
2022/06/02 10:55:10;;;;;;;;;4.80;4.80;;;;;;;;5058775;27;45774;-74
2022/06/02 10:57:45;;;;;;;;;3.40;2.40;;;;;;;;5083184;27;45329;-73
2022/06/02 11:00:16;;;;;;;;;2.00;2.00;;;;;;;;5062427;28;47071;-73
2022/06/02 11:03:00;;;;;;;;;5.00;1.80;;;;;;;;5085492;27;45216;-73
2022/06/02 11:05:45;;;;;;;;;3.20;2.80;;;;;;;;5078925;27;45439;-72
2022/06/02 11:08:33;;;;;;;;;2.20;2.20;;;;;;;;5058362;28;46189;-73
2022/06/02 11:11:07;;;;;;;;;4.00;3.00;;;;;;;;5059136;27;47216;-72
2022/06/02 11:13:45;;;;;;;;;2.20;2.20;;;;;;;;5062824;28;45350;-74
2022/06/02 11:16:29;;;;;;;;;2.00;2.00;;;;;;;;5073105;27;45513;-74
2022/06/02 11:19:09;;;;;;;;;3.00;2.20;;;;;;;;5097442;27;45406;-72
2022/06/02 11:21:48;;;;;;;;;2.80;2.80;;;;;;;;5075599;28;45691;-72
2022/06/02 11:24:25;;;;;;;;;2.20;2.20;;;;;;;;5079398;27;45620;-73
2022/06/02 11:26:53;;;;;;;;;3.20;3.20;;;;;;;;5083505;27;45489;-72
2022/06/02 11:29:21;;;;;;;;;3.20;3.20;;;;;;;;5094447;27;45474;-74
2022/06/02 11:31:55;;;;;;;;;3.80;3.80;;;;;;;;5077945;27;45280;-73
2022/06/02 11:34:52;;;;;;;;;3.60;3.20;;;;;;;;5077957;27;45225;-74
2022/06/02 11:37:18;;;;;;;;;4.20;3.20;;;;;;;;5015422;28;45319;-74
2022/06/02 11:39:55;;;;;;;;;3.00;3.00;;;;;;;;5076855;27;45442;-74
2022/06/02 11:42:29;;;;;;;;;4.00;4.00;;;;;;;;5078655;27;46950;-75
2022/06/02 11:44:54;;;;;;;;;3.00;2.80;;;;;;;;5058531;28;45352;-74
2022/06/02 11:47:38;;;;;;;;;3.25;3.25;;;;;;;;5084272;27;45260;-74
2022/06/02 11:50:09;;;;;;;;;3.80;3.80;;;;;;;;5081131;27;45150;-74
2022/06/02 11:52:53;;;;;;;;;4.00;4.00;;;;;;;;5089275;27;45339;-75
2022/06/02 11:55:29;;;;;;;;;2.20;2.20;;;;;;;;5075967;27;45434;-74
2022/06/02 11:58:13;;;;;;;;;3.80;3.80;;;;;;;;5083658;27;45274;-75
2022/06/02 12:00:50;;;;;;;;;4.00;3.80;;;;;;;;5076884;27;45340;-74
2022/06/02 12:03:15;;;;;;;;;2.60;2.60;;;;;;;;5076163;27;46337;-75
2022/06/02 12:05:57;;;;;;;;;4.00;4.00;;;;;;;;5080300;27;45165;-73
2022/06/02 12:08:42;;;;;;;;;6.00;3.40;;;;;;;;5077991;27;45379;-74
2022/06/02 12:11:26;;;;;;;;;4.00;4.00;;;;;;;;5070322;27;46961;-74
2022/06/02 12:13:51;;;;;;;;;3.80;3.80;;;;;;;;5069760;27;46676;-75
2022/06/02 12:16:22;;;;;;;;;3.50;3.50;;;;;;;;5070612;27;45474;-73
2022/06/02 12:18:48;;;;;;;;;3.00;3.00;;;;;;;;5080498;27;45372;-75
2022/06/02 12:21:19;;;;;;;;;3.00;3.00;;;;;;;;5083743;27;46666;-73
2022/06/02 12:23:44;;;;;;;;;3.60;3.20;;;;;;;;5061533;28;48466;-74
2022/06/02 12:26:28;;;;;;;;;3.75;2.00;;;;;;;;5055320;27;45340;-75
2022/06/02 12:29:09;;;;;;;;;2.40;2.40;;;;;;;;5074621;27;45343;-74
2022/06/02 12:31:35;;;;;;;;;1.40;1.40;;;;;;;;5074667;28;45397;-75
2022/06/02 12:34:09;;;;;;;;;3.00;2.50;;;;;;;;5057314;28;48021;-74
2022/06/02 12:36:40;;;;;;;;;4.60;3.00;;;;;;;;5087690;27;45324;-73
2022/06/02 12:39:24;;;;;;;;;4.40;2.20;;;;;;;;5083911;27;45308;-74
2022/06/02 12:42:12;;;;;;;;;2.60;2.60;;;;;;;;5059459;28;47343;-74
2022/06/02 12:44:50;;;;;;;;;1.20;1.20;;;;;;;;5083444;27;47250;-74
2022/06/02 12:47:18;;;;;;;;;3.20;2.40;;;;;;;;5078200;28;45504;-75
2022/06/02 12:49:46;;;;;;;;;3.40;2.00;;;;;;;;5057346;27;45490;-73
2022/06/02 12:52:24;;;;;;;;;26.25;24.25;;;;;;;;5060320;28;46210;-74
2022/06/02 12:55:08;;;;;;;;;28.25;27.25;;;;;;;;5056785;28;46978;-75
2022/06/02 12:57:47;;;;;;;;;2.00;2.00;;;;;;;;5067200;27;45456;-75
2022/06/02 13:00:19;;;;;;;;;3.00;3.00;;;;;;;;5084878;27;45529;-75
2022/06/02 13:03:22;;;;;;;;;2.00;2.00;;;;;;;;5085028;27;45164;-75
2022/06/02 13:05:53;;;;;;;;;1.40;1.40;;;;;;;;5012464;28;45734;-75
2022/06/02 13:08:37;;;;;;;;;2.00;2.00;;;;;;;;4997264;28;45482;-75
2022/06/02 13:11:11;;;;;;;;;1.00;1.00;;;;;;;;5054092;27;45431;-75
2022/06/02 13:13:52;;;;;;;;;2.00;2.00;;;;;;;;5070840;27;45284;-75
2022/06/02 13:16:20;;;;;;;;;1.60;1.60;;;;;;;;5076908;27;46833;-75
2022/06/02 13:18:45;;;;;;;;;1.00;1.00;;;;;;;;5079770;27;45419;-76
2022/06/02 13:21:29;;;;;;;;;6.75;6.75;;;;;;;;5070189;27;45504;-74
2022/06/02 13:24:02;;;;;;;;;2.60;2.60;;;;;;;;5072001;27;46118;-75
2022/06/02 13:26:46;;;;;;;;;3.20;1.40;;;;;;;;5056446;27;48334;-75
2022/06/02 13:29:30;;;;;;;;;1.20;1.20;;;;;;;;5058671;27;45281;-75
2022/06/02 13:31:55;;;;;;;;;2.00;2.00;;;;;;;;5083309;27;45433;-74
2022/06/02 13:34:39;;;;;;;;;2.00;2.00;;;;;;;;5058147;27;46005;-75
2022/06/02 13:37:23;;;;;;;;;3.00;2.00;;;;;;;;5056298;28;46999;-73
2022/06/02 13:40:08;;;;;;;;;1.80;1.20;;;;;;;;5057147;28;45234;-74
2022/06/02 13:42:39;;;;;;;;;2.40;2.40;;;;;;;;5078497;27;45479;-74
2022/06/02 13:45:22;;;;;;;;;1.20;1.20;;;;;;;;5072468;28;45504;-75
2022/06/02 13:48:06;;;;;;;;;2.40;2.20;;;;;;;;5049488;28;47138;-76
2022/06/02 13:50:39;;;;;;;;;2.00;1.20;;;;;;;;5073013;27;45326;-75
2022/06/02 13:53:23;;;;;;;;;1.40;1.40;;;;;;;;5060453;28;45256;-75
2022/06/02 13:58:52;;;;;;;;;1.60;1.60;;;;;;;;5080634;28;45499;-75
2022/06/02 14:01:17;;;;;;;;;1.20;1.20;;;;;;;;5045811;27;45414;-75
2022/06/02 14:03:55;;;;;;;;;3.00;3.00;;;;;;;;5082010;27;45282;-75
2022/06/02 14:06:23;;;;;;;;;1.20;1.20;;;;;;;;5076288;27;45211;-75
2022/06/02 14:08:54;;;;;;;;;3.00;1.40;;;;;;;;5081915;27;45544;-75
2022/06/02 14:11:20;;;;;;;;;1.20;1.20;;;;;;;;5074426;27;47123;-74
2022/06/02 14:13:54;;;;;;;;;2.50;2.50;;;;;;;;5082331;28;45271;-74
2022/06/02 14:16:31;;;;;;;;;3.20;1.20;;;;;;;;5075851;27;45518;-74
2022/06/02 14:18:56;;;;;;;;;6.40;2.60;;;;;;;;5081772;27;45433;-75
2022/06/02 14:21:31;;;;;;;;;1.00;1.00;;;;;;;;5057445;28;45761;-75
2022/06/02 14:24:10;;;;;;;;;3.40;1.60;;;;;;;;5081980;27;45399;-74
2022/06/02 14:26:35;;;;;;;;;3.00;1.60;;;;;;;;5057090;28;46394;-74
2022/06/02 14:29:00;;;;;;;;;3.00;1.00;;;;;;;;5081640;27;46422;-74
2022/06/02 14:31:26;;;;;;;;;3.00;3.00;;;;;;;;5077100;27;45473;-74
2022/06/02 14:33:57;;;;;;;;;2.25;2.25;;;;;;;;5082975;27;45308;-74
2022/06/02 14:36:25;;;;;;;;;4.80;4.80;;;;;;;;5087724;27;45355;-75
2022/06/02 14:38:57;;;;;;;;;4.40;3.20;;;;;;;;5079771;27;48164;-76
2022/06/02 14:41:29;;;;;;;;;2.20;2.20;;;;;;;;5079872;27;45348;-75
2022/06/02 14:44:21;;;;;;;;;1.00;1.00;;;;;;;;5063287;28;45259;-75
2022/06/02 14:46:49;;;;;;;;;4.20;2.40;;;;;;;;5039274;27;45627;-75
2022/06/02 14:49:24;;;;;;;;;3.40;3.40;;;;;;;;5061547;28;48325;-75
2022/06/02 14:51:59;;;;;;;;;2.40;2.40;;;;;;;;5078474;27;45364;-75
2022/06/02 14:54:30;;;;;;;;;2.80;2.20;;;;;;;;5084964;27;45390;-75
2022/06/02 14:56:55;;;;;;;;;2.40;2.40;;;;;;;;5078858;27;45426;-75
2022/06/02 14:59:26;;;;;;;;;1.25;1.25;;;;;;;;5079049;27;45471;-74
2022/06/02 15:02:11;;;;;;;;;2.20;2.20;;;;;;;;5079484;27;45446;-74
2022/06/02 15:04:36;;;;;;;;;2.80;2.80;;;;;;;;5054385;28;45583;-74
2022/06/02 15:07:20;;;;;;;;;2.25;2.25;;;;;;;;5079280;27;45440;-74
2022/06/02 15:09:45;;;;;;;;;2.60;2.40;;;;;;;;5059747;28;47349;-74
2022/06/02 15:12:11;;;;;;;;;3.00;3.00;;;;;;;;5082609;27;45394;-75
2022/06/02 15:14:36;;;;;;;;;2.25;2.25;;;;;;;;5079800;27;45192;-76
2022/06/02 15:17:20;;;;;;;;;1.50;1.50;;;;;;;;5057949;28;46095;-76
2022/06/02 15:19:45;;;;;;;;;3.00;2.40;;;;;;;;5055566;28;46904;-74
2022/06/02 15:22:11;;;;;;;;;2.25;2.25;;;;;;;;5076400;28;45209;-77
2022/06/02 15:24:48;;;;;;;;;2.00;2.00;;;;;;;;5060561;28;45442;-75
2022/06/02 15:27:29;;;;;;;;;1.40;1.40;;;;;;;;5090542;27;45370;-76
2022/06/02 15:29:54;;;;;;;;;2.20;2.20;;;;;;;;5068527;27;46495;-75
2022/06/02 15:32:29;;;;;;;;;2.75;2.00;;;;;;;;5085322;27;45404;-77
2022/06/02 15:35:08;;;;;;;;;2.00;2.00;;;;;;;;5090959;27;45515;-74
2022/06/02 15:37:36;;;;;;;;;2.80;2.00;;;;;;;;5084103;27;45467;-76
2022/06/02 15:40:19;;;;;;;;;2.60;2.60;;;;;;;;5083354;27;45442;-75